La Conner, WA (98257)

11:45 AM PDT on August 21, 2014 (GMT -0700)
South Fidalgo Island | Change Station
CLOSE
Current Station
Personal Weather Station
Location: Anacortes, WA
Elevation: 42 ft
Nearby Weather Stations

Elev 42 ft 48.43 °N, 122.59 °W | Updated 3 minutes ago

Clear
Clear
66.3 °F
Feels Like 66.3 °F
N
1.0
Wind Variable Wind from SW
Gusts 1.0 mph

Today
High -- | Low -- °F
--% Chance of Precip.
Yesterday
High -- | Low -- °F
Precip. -- in
6:12 AM 8:12 PM
Waning Crescent, 13% visible
Pressure 30.04 in
Visibility 8.0 miles
Clouds Clear
Dew Point 58 °F
Humidity 74%
Rainfall 0.00 in
Snow Depth Not available.
UV 7 out of 12
Pollen 2.60 out of 12
PM2.5 Good
Flu Activity Not available.
METAR KBVS 211835Z AUTO 19007KT 8SM CLR 19/12 A3004 RMK A01 P000

More Conditions Fewer Conditions

Pressure 30.04 in
Visibility 8.0 miles
Clouds Clear
Dew Point 58 °F
Humidity 74%
Rainfall 0.00 in
Snow Depth Not available.
UV 7 out of 12
Pollen 2.60 out of 12
PM2.5 Good
Flu Activity Not available.
METAR KBVS 211835Z AUTO 19007KT 8SM CLR 19/12 A3004 RMK A01 P000

More Conditions Fewer Conditions

10-Day Weather Forecast

Almanac

Astronomy

Aug. 21, 2014 Rise Set
Actual Time 6:12 AM PDT 8:12 PM PDT
Civil Twilight 5:38 AM PDT 8:46 PM PDT
Nautical Twilight 4:56 AM PDT 9:27 PM PDT
Astronomical Twilight 4:10 AM PDT 10:14 PM PDT
Moon 2:39 AM PDT 5:52 PM PDT
Length of Visible Light 15h 07m
Length of Day
14h 00m
Tomorrow will be 3m 17s shorter.
Waning Crescent, 13% of the Moon is Illuminated
Today
Waning Crescent
Aug 25
New
Sep 2
First Quarter
Sep 8
Full
Sep 15
Last Quarter

Today's Extremes

State Highs State Lows

Community

WunderPhotos

Upload Photos

1,745,996 photos uploaded!

WunderBlogs® & News

Nearby

Air Quality

  Air Quality AQ Index Pollutant
Yesterday Good
PM2.5
Current Good
PM2.5
Thursday Good
OZONE
Thursday Good
PM2.5
Friday Good
OZONE
Friday Good
PM2.5
Saturday Good
OZONE
Saturday Good
PM2.5
Sunday Good
OZONE
Sunday Good
PM2.5

Snow Depth

Station Depth Elevation
Dungeness 1 in 4100 ft
Alpine Meadows 0 in 3500 ft
Skookum Creek 0 in 3920 ft
Beaver Pass 0 in 3620 ft
Lyman Lake 0 in 5900 ft

Earthquake Activity

City Distance Mag. Time & Date
No recent earthquake activity has been reported nearby.
Minimum magnitude displayed is 2.5.

Coastal Water Temperatures

Place Temperature
Port Townsend, WA 55.0 °F
Friday Harbor, WA 54.0 °F
Port Angeles, WA 53.1 °F

Nearby Weather Stations